Terminal Aerodrome Forecast
Issued by NWS Wilmington, NC

Home | Current Version | Previous Version | Text Only | Print | Product List | Glossary On
Versions: 1 2 3 4 5 6 7 8 9 10 11 12 13 14 15 16 17 18 19 20 21 22 23
000
FTUS42 KILM 260800 AAB
TAFLBT
TAF AMD
KLBT 260830Z 2609/2706 00000KT 5SM BR BKN005 OVC015
      TEMPO 2609/2612 2SM BR VV002
     FM261300 26004KT P6SM SCT030
     FM261800 25008KT P6SM SCT045 BKN250
     FM270000 21010KT P6SM BKN250=

USA.gov is the U.S. government's official web portal to all federal, state and local government web resources and services.